Crescent City, FL (32112)

12:20 EDT le 31 octobre 2014 (GMT -0400)
Beulah Church Rd,Fruitland | Change Station
CLOSE
Current Station
Stations météorologiques personnelles
Location: Crescent City, FL
Altitude: 45 ft
Stations météo à proximité

Alt. 45 ft 29.44 °N, 81.63 °W | Updated 6 seconds ago

Ciel dégagé
Ciel dégagé
71.2 ° F
Paraît 74 ° F
N
0.0
Vent Variable Vent de SO
Gusts 7.0 mph

Aujourd'hui
Haut(e) -- | Bas -- ° F
--% Risque de précip.
Hier
Haut(e) -- | Bas -- ° F
Precip. -- pouce
7:38 AM 6:40 PM
Premier quartier, 56% visible
Pression 29.86 pouce
Visibilité 10.0 Miles terrestres
Nuages Nuages épars 3000 ft
indice de chaleur 74 ° F
Point de rosée 61 ° F
Humidité 71%
Précipitations 0.00 pouce
Profondeur de la couche neigeuse Non disponible.
UV 6 sur 12
Pollen 4.30 sur 12
Qualité de l'air Non disponible.
Flu Activity Non disponible.
METAR KOMN 311550Z 31010KT 10SM SCT030 23/16 A2986

More Conditions Fewer Conditions

Pression 29.86 pouce
Visibilité 10.0 Miles terrestres
Nuages Nuages épars 3000 ft
indice de chaleur 74 ° F
Point de rosée 61 ° F
Humidité 71%
Précipitations 0.00 pouce
Profondeur de la couche neigeuse Non disponible.
UV 6 sur 12
Pollen 4.30 sur 12
Qualité de l'air Non disponible.
Flu Activity Non disponible.
METAR KOMN 311550Z 31010KT 10SM SCT030 23/16 A2986

More Conditions Fewer Conditions

10-Day Weather Forecast

Almanac

Astronomie

Oct. 31, 2014 Lever Coucher
Temps réel
Crépuscule civil
Crépuscule nautique
Crépuscule astronomique
Lune
Durée de lumière visible
Longueur du jour
Tomorrow will be .
, % of the Moon is Illuminated

Extrêmes aujourd'hui

State Highs State Lows

Community

WunderPhotos

Upload Photos

1,766,652 Photos téléchargées !

WunderBlogs® & News

Nearby

Qualité de l'air

  Qualité de l'air Indice de la qualité de l'air Polluant
Not available.

Épaisseur de neige

Station Depth Altitude

Activité sismique

Ville Distance Mag. Time & Date
Minimum magnitude displayed is 2.5.

Températures des eaux côtières

Lieu Température

Stations météo à proximité